Time,TemperatureF,DewpointF,PressureIn,WindDirection,WindDirectionDegrees,WindSpeedMPH,WindSpeedGustMPH,Humidity,HourlyPrecipIn,Conditions,Clouds,dailyrainin,SolarRadiationWatts/m^2,SoftwareType,DateUTC
2013-04-19 00:07:00,41.0,37.4,28.93,WSW,248,4.0,4.0,87,0.00,,,0.02,0,Wunderground v.1.15,2013-04-19 05:07:00,
2013-04-19 00:12:00,40.8,37.2,28.93,WSW,243,4.0,7.0,87,0.00,,,0.02,0,Wunderground v.1.15,2013-04-19 05:12:00,
2013-04-19 00:22:00,40.6,36.4,28.92,WSW,244,4.0,8.0,85,0.00,,,0.02,0,Wunderground v.1.15,2013-04-19 05:22:00,
2013-04-19 00:28:00,40.5,36.3,28.93,WSW,242,4.0,4.0,85,0.00,,,0.02,0,Wunderground v.1.15,2013-04-19 05:28:00,
2013-04-19 00:37:00,40.4,36.2,28.93,WSW,255,4.0,8.0,85,0.00,,,0.02,0,Wunderground v.1.15,2013-04-19 05:37:00,
2013-04-19 00:44:00,40.2,36.1,28.93,WSW,249,4.0,8.0,85,0.00,,,0.02,0,Wunderground v.1.15,2013-04-19 05:44:00,
2013-04-19 00:53:00,40.1,36.0,28.94,NNW,341,4.0,8.0,85,0.00,,,0.02,0,Wunderground v.1.15,2013-04-19 05:53:00,
2013-04-19 00:59:00,40.0,35.9,28.93,WSW,246,3.0,3.0,85,0.00,,,0.02,0,Wunderground v.1.15,2013-04-19 05:59:00,
2013-04-19 01:09:00,39.7,35.6,28.92,WSW,244,4.0,4.0,85,0.00,,,0.02,0,Wunderground v.1.15,2013-04-19 06:09:00,
2013-04-19 01:18:00,39.7,35.9,28.92,West,261,4.0,8.0,86,0.00,,,0.02,0,Wunderground v.1.15,2013-04-19 06:18:00,
2013-04-19 01:23:00,39.5,35.1,28.92,WSW,246,5.0,8.0,84,0.00,,,0.02,0,Wunderground v.1.15,2013-04-19 06:23:00,
2013-04-19 01:33:00,39.5,35.1,28.92,WSW,238,5.0,8.0,84,0.00,,,0.02,0,Wunderground v.1.15,2013-04-19 06:33:00,
2013-04-19 01:38:00,39.4,35.0,28.92,WSW,250,5.0,10.0,84,0.00,,,0.02,0,Wunderground v.1.15,2013-04-19 06:38:00,
2013-04-19 01:48:00,39.4,35.0,28.92,WSW,256,4.0,8.0,84,0.00,,,0.02,0,Wunderground v.1.15,2013-04-19 06:48:00,
2013-04-19 01:58:00,39.0,34.3,28.92,WSW,249,5.0,5.0,83,0.00,,,0.02,0,Wunderground v.1.15,2013-04-19 06:58:00,
2013-04-19 02:08:00,38.8,33.8,28.92,WSW,245,5.0,8.0,82,0.00,,,0.02,0,Wunderground v.1.15,2013-04-19 07:08:00,
2013-04-19 02:18:00,38.7,33.7,28.92,WSW,240,5.0,8.0,82,0.00,,,0.02,0,Wunderground v.1.15,2013-04-19 07:18:00,
2013-04-19 02:28:00,38.6,33.6,28.92,WSW,248,6.0,9.0,82,0.00,,,0.02,0,Wunderground v.1.15,2013-04-19 07:28:00,
2013-04-19 02:33:00,38.6,33.6,28.92,West,261,6.0,9.0,82,0.00,,,0.02,0,Wunderground v.1.15,2013-04-19 07:33:00,
2013-04-19 02:43:00,38.5,33.5,28.92,WSW,244,7.0,8.0,82,0.00,,,0.02,0,Wunderground v.1.15,2013-04-19 07:43:00,
2013-04-19 02:53:00,38.5,33.2,28.92,NW,310,6.0,8.0,81,0.00,,,0.02,0,Wunderground v.1.15,2013-04-19 07:53:00,
2013-04-19 02:58:00,38.5,32.9,28.92,West,259,5.0,8.0,80,0.00,,,0.02,0,Wunderground v.1.15,2013-04-19 07:58:00,
2013-04-19 03:08:00,38.4,32.8,28.91,SW,228,6.0,10.0,80,0.00,,,0.02,0,Wunderground v.1.15,2013-04-19 08:08:00,
2013-04-19 03:13:00,38.4,32.5,28.91,WSW,246,7.0,10.0,79,0.00,,,0.02,0,Wunderground v.1.15,2013-04-19 08:13:00,
2013-04-19 03:23:00,38.3,32.7,28.91,WSW,248,6.0,8.0,80,0.00,,,0.02,0,Wunderground v.1.15,2013-04-19 08:23:00,
2013-04-19 03:33:00,38.2,32.6,28.91,NNW,346,6.0,8.0,80,0.00,,,0.02,0,Wunderground v.1.15,2013-04-19 08:33:00,
2013-04-19 03:43:00,38.2,32.9,28.91,WSW,240,6.0,8.0,81,0.00,,,0.02,0,Wunderground v.1.15,2013-04-19 08:43:00,
2013-04-19 03:48:00,38.1,32.8,28.91,WSW,244,5.0,5.0,81,0.00,,,0.02,0,Wunderground v.1.15,2013-04-19 08:48:00,
2013-04-19 03:58:00,38.1,32.8,28.91,West,259,6.0,10.0,81,0.00,,,0.02,0,Wunderground v.1.15,2013-04-19 08:58:00,
2013-04-19 04:03:00,38.1,32.8,28.91,SSW,199,6.0,10.0,81,0.00,,,0.02,0,Wunderground v.1.15,2013-04-19 09:03:00,
2013-04-19 04:18:00,38.0,32.7,28.91,WSW,248,5.0,8.0,81,0.00,,,0.02,0,Wunderground v.1.15,2013-04-19 09:18:00,
2013-04-19 04:28:00,37.9,32.3,28.91,WNW,286,5.0,8.0,80,0.00,,,0.02,0,Wunderground v.1.15,2013-04-19 09:28:00,
2013-04-19 04:37:00,37.9,32.3,28.91,SW,228,5.0,5.0,80,0.00,,,0.02,0,Wunderground v.1.15,2013-04-19 09:37:00,
2013-04-19 04:43:00,37.9,32.6,28.92,WSW,252,4.0,8.0,81,0.00,,,0.02,0,Wunderground v.1.15,2013-04-19 09:43:00,
2013-04-19 04:53:00,37.8,32.5,28.92,West,275,5.0,8.0,81,0.00,,,0.02,0,Wunderground v.1.15,2013-04-19 09:53:00,
2013-04-19 05:03:00,37.8,32.2,28.92,WSW,241,5.0,8.0,80,0.00,,,0.02,0,Wunderground v.1.15,2013-04-19 10:03:00,
2013-04-19 05:12:00,37.8,31.9,28.92,WSW,255,5.0,9.0,79,0.00,,,0.02,0,Wunderground v.1.15,2013-04-19 10:12:00,
2013-04-19 05:18:00,37.8,31.6,28.92,WSW,248,6.0,6.0,78,0.00,,,0.02,0,Wunderground v.1.15,2013-04-19 10:18:00,
2013-04-19 05:27:00,37.8,31.6,28.92,West,267,6.0,10.0,78,0.00,,,0.02,0,Wunderground v.1.15,2013-04-19 10:27:00,
2013-04-19 05:32:00,37.9,32.0,28.92,WSW,252,6.0,10.0,79,0.00,,,0.02,0,Wunderground v.1.15,2013-04-19 10:32:00,
2013-04-19 05:39:00,37.7,32.1,28.92,WSW,248,6.0,8.0,80,0.00,,,0.02,0,Wunderground v.1.15,2013-04-19 10:39:00,
2013-04-19 05:49:00,37.5,31.3,28.93,WSW,257,8.0,10.0,78,0.00,,,0.02,0,Wunderground v.1.15,2013-04-19 10:49:00,
2013-04-19 05:58:00,37.4,31.8,28.93,NW,321,8.0,11.0,80,0.00,,,0.02,0,Wunderground v.1.15,2013-04-19 10:58:00,
2013-04-19 06:04:00,37.3,31.7,28.93,SW,233,7.0,11.0,80,0.00,,,0.02,0,Wunderground v.1.15,2013-04-19 11:04:00,
2013-04-19 06:13:00,37.2,32.2,28.93,WNW,284,7.0,9.0,82,0.00,,,0.02,0,Wunderground v.1.15,2013-04-19 11:13:00,
2013-04-19 06:18:00,37.1,32.4,28.94,WSW,251,8.0,8.0,83,0.00,,,0.02,0,Wunderground v.1.15,2013-04-19 11:18:00,
2013-04-19 06:29:00,36.9,31.6,28.94,SW,233,7.0,7.0,81,0.00,,,0.02,0,Wunderground v.1.15,2013-04-19 11:29:00,
2013-04-19 06:38:00,36.9,31.0,28.94,WSW,246,7.0,7.0,79,0.00,,,0.02,7,Wunderground v.1.15,2013-04-19 11:38:00,
2013-04-19 06:43:00,36.9,31.3,28.94,WSW,250,6.0,8.0,80,0.00,,,0.02,9,Wunderground v.1.15,2013-04-19 11:43:00,
2013-04-19 06:53:00,36.8,31.2,28.94,WSW,243,5.0,8.0,80,0.00,,,0.02,11,Wunderground v.1.15,2013-04-19 11:53:00,
2013-04-19 06:58:00,36.8,31.2,28.94,West,263,5.0,8.0,80,0.00,,,0.02,11,Wunderground v.1.15,2013-04-19 11:58:00,
2013-04-19 07:08:00,36.9,31.6,28.95,West,265,6.0,8.0,81,0.00,,,0.02,12,Wunderground v.1.15,2013-04-19 12:08:00,
2013-04-19 07:13:00,36.9,31.9,28.95,WSW,247,6.0,8.0,82,0.00,,,0.02,12,Wunderground v.1.15,2013-04-19 12:13:00,
2013-04-19 07:23:00,36.8,31.2,28.95,WSW,246,7.0,8.0,80,0.00,,,0.02,21,Wunderground v.1.15,2013-04-19 12:23:00,
2013-04-19 07:33:00,36.9,30.7,28.95,WSW,250,7.0,9.0,78,0.00,,,0.02,33,Wunderground v.1.15,2013-04-19 12:33:00,
2013-04-19 07:43:00,37.0,31.1,28.95,WSW,251,8.0,10.0,79,0.00,,,0.02,32,Wunderground v.1.15,2013-04-19 12:43:00,
2013-04-19 07:48:00,37.0,31.1,28.95,West,261,8.0,9.0,79,0.00,,,0.02,33,Wunderground v.1.15,2013-04-19 12:48:00,
2013-04-19 07:58:00,37.1,31.8,28.95,WSW,248,7.0,12.0,81,0.00,,,0.02,39,Wunderground v.1.15,2013-04-19 12:58:00,
2013-04-19 08:08:00,37.2,31.6,28.96,WSW,242,9.0,9.0,80,0.00,,,0.02,46,Wunderground v.1.15,2013-04-19 13:08:00,
2013-04-19 08:13:00,37.3,31.7,28.96,WNW,288,9.0,9.0,80,0.00,,,0.02,54,Wunderground v.1.15,2013-04-19 13:13:00,
2013-04-19 08:23:00,37.3,31.7,28.96,West,262,9.0,9.0,80,0.00,,,0.02,67,Wunderground v.1.15,2013-04-19 13:23:00,
2013-04-19 08:28:00,37.4,31.8,28.96,WSW,242,9.0,9.0,80,0.00,,,0.02,56,Wunderground v.1.15,2013-04-19 13:28:00,
2013-04-19 08:38:00,37.5,32.2,28.96,WSW,256,8.0,9.0,81,0.00,,,0.02,54,Wunderground v.1.15,2013-04-19 13:38:00,
2013-04-19 08:43:00,37.4,32.1,28.97,West,263,7.0,9.0,81,0.00,,,0.02,44,Wunderground v.1.15,2013-04-19 13:43:00,
2013-04-19 08:53:00,37.3,32.0,28.97,SW,225,8.0,9.0,81,0.00,,,0.02,40,Wunderground v.1.15,2013-04-19 13:53:00,
2013-04-19 09:03:00,37.1,32.1,28.97,SW,235,9.0,9.0,82,0.00,,,0.02,47,Wunderground v.1.15,2013-04-19 14:03:00,
2013-04-19 09:13:00,37.0,32.3,28.98,WSW,248,9.0,13.0,83,0.00,,,0.02,102,Wunderground v.1.15,2013-04-19 14:13:00,
2013-04-19 09:18:00,37.0,32.3,28.98,WSW,251,9.0,9.0,83,0.00,,,0.02,127,Wunderground v.1.15,2013-04-19 14:18:00,
2013-04-19 09:28:00,37.1,31.8,28.98,West,263,9.0,9.0,81,0.00,,,0.02,91,Wunderground v.1.15,2013-04-19 14:28:00,
2013-04-19 09:38:00,37.0,31.4,28.99,West,262,9.0,16.0,80,0.00,,,0.02,95,Wunderground v.1.15,2013-04-19 14:38:00,
2013-04-19 09:43:00,37.0,31.4,28.99,WSW,257,8.0,16.0,80,0.00,,,0.02,104,Wunderground v.1.15,2013-04-19 14:43:00,
2013-04-19 09:52:00,37.1,31.2,28.99,WNW,296,9.0,14.0,79,0.00,,,0.02,120,Wunderground v.1.15,2013-04-19 14:52:00,
2013-04-19 09:58:00,37.2,31.6,28.99,North,5,10.0,15.0,80,0.00,,,0.02,121,Wunderground v.1.15,2013-04-19 14:58:00,
2013-04-19 10:07:00,37.1,30.9,28.99,WSW,237,10.0,11.0,78,0.00,,,0.02,127,Wunderground v.1.15,2013-04-19 15:07:00,
2013-04-19 10:13:00,37.2,31.3,28.99,WSW,250,10.0,14.0,79,0.00,,,0.02,120,Wunderground v.1.15,2013-04-19 15:13:00,
2013-04-19 10:22:00,37.4,31.8,28.99,WSW,237,9.0,10.0,80,0.00,,,0.02,156,Wunderground v.1.15,2013-04-19 15:22:00,
2013-04-19 10:28:00,37.4,31.5,28.99,WSW,252,9.0,9.0,79,0.00,,,0.02,169,Wunderground v.1.15,2013-04-19 15:28:00,
2013-04-19 10:37:00,37.4,31.5,28.99,West,271,10.0,10.0,79,0.00,,,0.02,232,Wunderground v.1.15,2013-04-19 15:37:00,
2013-04-19 10:44:00,38.1,31.8,28.99,SW,233,10.0,10.0,78,0.00,,,0.00,482,Wunderground v.1.15,2013-04-19 15:44:00,
2013-04-19 10:53:00,38.8,32.5,29.00,WNW,302,9.0,16.0,78,0.00,,,0.00,285,Wunderground v.1.15,2013-04-19 15:53:00,
2013-04-19 10:58:00,38.2,31.6,29.00,WSW,250,9.0,10.0,77,0.00,,,0.00,113,Wunderground v.1.15,2013-04-19 15:58:00,
2013-04-19 11:04:00,37.8,31.2,29.00,WSW,242,10.0,10.0,77,0.00,,,0.00,114,Wunderground v.1.15,2013-04-19 16:04:00,
2013-04-19 11:13:00,37.5,31.3,29.00,West,264,9.0,10.0,78,0.00,,,0.00,121,Wunderground v.1.15,2013-04-19 16:13:00,
2013-04-19 11:18:00,37.7,31.8,29.00,WSW,246,9.0,11.0,79,0.00,,,0.00,283,Wunderground v.1.15,2013-04-19 16:18:00,
2013-04-19 11:28:00,37.9,31.7,29.00,NW,307,9.0,9.0,78,0.00,,,0.00,114,Wunderground v.1.15,2013-04-19 16:28:00,
2013-04-19 11:38:00,37.6,31.7,29.01,SW,236,9.0,9.0,79,0.00,,,0.00,102,Wunderground v.1.15,2013-04-19 16:38:00,
2013-04-19 11:43:00,37.6,32.0,29.00,WSW,245,8.0,9.0,80,0.00,,,0.00,116,Wunderground v.1.15,2013-04-19 16:43:00,
2013-04-19 11:53:00,37.7,32.4,29.01,West,259,8.0,16.0,81,0.00,,,0.00,225,Wunderground v.1.15,2013-04-19 16:53:00,
2013-04-19 11:58:00,37.9,32.3,29.01,West,265,8.0,8.0,80,0.00,,,0.00,178,Wunderground v.1.15,2013-04-19 16:58:00,
2013-04-19 12:08:00,37.9,32.3,29.01,WSW,250,7.0,7.0,80,0.00,,,0.00,83,Wunderground v.1.15,2013-04-19 17:08:00,
2013-04-19 12:13:00,37.6,32.3,29.01,WSW,239,7.0,10.0,81,0.00,,,0.00,79,Wunderground v.1.15,2013-04-19 17:13:00,
2013-04-19 12:23:00,37.7,32.7,29.02,WSW,248,7.0,14.0,82,0.00,,,0.00,158,Wunderground v.1.15,2013-04-19 17:23:00,
2013-04-19 12:33:00,37.8,32.2,29.02,WNW,295,8.0,8.0,80,0.00,,,0.00,135,Wunderground v.1.15,2013-04-19 17:33:00,
2013-04-19 12:43:00,37.9,32.6,29.03,WSW,250,8.0,10.0,81,0.00,,,0.00,128,Wunderground v.1.15,2013-04-19 17:43:00,
2013-04-19 12:53:00,37.7,32.4,29.03,WSW,238,9.0,11.0,81,0.00,,,0.00,86,Wunderground v.1.15,2013-04-19 17:53:00,
2013-04-19 13:03:00,37.5,32.2,29.03,WSW,255,9.0,10.0,81,0.00,,,0.00,90,Wunderground v.1.15,2013-04-19 18:03:00,
2013-04-19 13:08:00,37.5,32.2,29.04,West,265,8.0,8.0,81,0.00,,,0.00,84,Wunderground v.1.15,2013-04-19 18:08:00,
2013-04-19 13:18:00,37.2,32.2,29.04,WSW,246,8.0,8.0,82,0.00,,,0.00,104,Wunderground v.1.15,2013-04-19 18:18:00,
2013-04-19 13:28:00,37.4,32.4,29.05,WSW,246,6.0,8.0,82,0.00,,,0.00,116,Wunderground v.1.15,2013-04-19 18:28:00,
2013-04-19 13:38:00,37.5,32.5,29.05,West,272,6.0,8.0,82,0.00,,,0.00,162,Wunderground v.1.15,2013-04-19 18:38:00,
2013-04-19 13:43:00,37.7,32.7,29.05,SW,232,5.0,9.0,82,0.00,,,0.00,232,Wunderground v.1.15,2013-04-19 18:43:00,
2013-04-19 13:53:00,37.5,32.2,29.05,WSW,242,6.0,12.0,81,0.00,,,0.00,114,Wunderground v.1.15,2013-04-19 18:53:00,
2013-04-19 13:58:00,37.4,32.1,29.06,West,273,8.0,8.0,81,0.00,,,0.00,248,Wunderground v.1.15,2013-04-19 18:58:00,
2013-04-19 14:08:00,38.2,32.6,29.06,SW,232,7.0,8.0,80,0.00,,,0.00,130,Wunderground v.1.15,2013-04-19 19:08:00,
2013-04-19 14:18:00,38.0,32.4,29.07,SW,227,7.0,8.0,80,0.00,,,0.00,97,Wunderground v.1.15,2013-04-19 19:18:00,
2013-04-19 14:23:00,37.8,31.9,29.07,WSW,244,7.0,9.0,79,0.00,,,0.00,146,Wunderground v.1.15,2013-04-19 19:23:00,
2013-04-19 14:32:00,37.8,31.9,29.07,West,260,8.0,8.0,79,0.00,,,0.00,174,Wunderground v.1.15,2013-04-19 19:32:00,
2013-04-19 14:38:00,38.0,32.1,29.07,West,259,8.0,8.0,79,0.00,,,0.00,199,Wunderground v.1.15,2013-04-19 19:38:00,
2013-04-19 14:47:00,38.0,31.7,29.07,WSW,246,8.0,8.0,78,0.00,,,0.00,84,Wunderground v.1.15,2013-04-19 19:47:00,
2013-04-19 14:53:00,37.9,31.7,29.07,WSW,257,7.0,12.0,78,0.00,,,0.00,100,Wunderground v.1.15,2013-04-19 19:53:00,
2013-04-19 15:03:00,38.1,32.5,29.08,WSW,237,7.0,10.0,80,0.00,,,0.00,100,Wunderground v.1.15,2013-04-19 20:03:00,
2013-04-19 15:12:00,37.9,32.3,29.08,WSW,244,7.0,8.0,80,0.00,,,0.00,116,Wunderground v.1.15,2013-04-19 20:12:00,
2013-04-19 15:18:00,37.8,32.2,29.08,NW,315,7.0,8.0,80,0.00,,,0.00,163,Wunderground v.1.15,2013-04-19 20:18:00,
2013-04-19 15:27:00,38.2,32.6,29.08,WSW,243,7.0,7.0,80,0.00,,,0.00,178,Wunderground v.1.15,2013-04-19 20:27:00,
2013-04-19 15:32:00,38.3,32.7,29.08,WSW,250,6.0,8.0,80,0.00,,,0.00,167,Wunderground v.1.15,2013-04-19 20:32:00,
2013-04-19 15:38:00,38.3,32.0,29.08,WSW,254,7.0,7.0,78,0.00,,,0.00,142,Wunderground v.1.15,2013-04-19 20:38:00,
2013-04-19 15:44:00,38.3,32.4,29.08,WSW,238,7.0,8.0,79,0.00,,,0.00,134,Wunderground v.1.15,2013-04-19 20:44:00,
2013-04-19 15:53:00,38.4,32.1,29.08,WSW,246,7.0,12.0,78,0.00,,,0.00,121,Wunderground v.1.15,2013-04-19 20:53:00,
2013-04-19 15:59:00,38.4,32.1,29.09,WSW,242,8.0,8.0,78,0.00,,,0.00,174,Wunderground v.1.15,2013-04-19 20:59:00,
2013-04-19 16:09:00,38.2,32.3,29.09,WSW,250,7.0,10.0,79,0.00,,,0.00,104,Wunderground v.1.15,2013-04-19 21:09:00,
2013-04-19 16:18:00,38.2,32.3,29.09,West,261,7.0,11.0,79,0.00,,,0.00,84,Wunderground v.1.15,2013-04-19 21:18:00,
2013-04-19 16:29:00,38.0,32.4,29.10,SW,234,8.0,9.0,80,0.00,,,0.00,100,Wunderground v.1.15,2013-04-19 21:29:00,
2013-04-19 16:38:00,38.2,32.6,29.10,WSW,242,6.0,6.0,80,0.00,,,0.00,46,Wunderground v.1.15,2013-04-19 21:38:00,
2013-04-19 16:43:00,38.1,32.5,29.11,West,267,6.0,7.0,80,0.00,,,0.00,86,Wunderground v.1.15,2013-04-19 21:43:00,
2013-04-19 16:53:00,38.1,32.5,29.11,WSW,248,6.0,8.0,80,0.00,,,0.00,127,Wunderground v.1.15,2013-04-19 21:53:00,
2013-04-19 16:58:00,38.3,32.4,29.11,WSW,247,6.0,6.0,79,0.00,,,0.00,70,Wunderground v.1.15,2013-04-19 21:58:00,
2013-04-19 17:08:00,38.4,32.5,29.12,WSW,252,5.0,8.0,79,0.00,,,0.00,42,Wunderground v.1.15,2013-04-19 22:08:00,
2013-04-19 17:13:00,38.3,32.4,29.12,WSW,250,5.0,8.0,79,0.00,,,0.00,54,Wunderground v.1.15,2013-04-19 22:13:00,
2013-04-19 17:23:00,38.2,32.9,29.13,WSW,249,4.0,8.0,81,0.00,,,0.00,91,Wunderground v.1.15,2013-04-19 22:23:00,
2013-04-19 17:28:00,38.2,32.3,29.13,NW,313,5.0,8.0,79,0.00,,,0.00,62,Wunderground v.1.15,2013-04-19 22:28:00,
2013-04-19 17:38:00,38.3,32.7,29.13,WSW,248,5.0,5.0,80,0.00,,,0.00,53,Wunderground v.1.15,2013-04-19 22:38:00,
2013-04-19 17:43:00,38.3,32.7,29.14,WSW,252,5.0,6.0,80,0.00,,,0.00,44,Wunderground v.1.15,2013-04-19 22:43:00,
2013-04-19 17:53:00,38.3,32.7,29.14,WSW,249,5.0,8.0,80,0.00,,,0.00,39,Wunderground v.1.15,2013-04-19 22:53:00,
2013-04-19 18:03:00,38.3,32.4,29.15,WSW,255,4.0,8.0,79,0.00,,,0.00,46,Wunderground v.1.15,2013-04-19 23:03:00,
2013-04-19 18:13:00,38.3,32.4,29.15,WSW,250,5.0,8.0,79,0.00,,,0.00,51,Wunderground v.1.15,2013-04-19 23:13:00,
2013-04-19 18:23:00,38.2,32.3,29.15,SW,236,5.0,6.0,79,0.00,,,0.00,37,Wunderground v.1.15,2013-04-19 23:23:00,
2013-04-19 18:28:00,38.2,32.3,29.15,West,263,5.0,8.0,79,0.00,,,0.00,28,Wunderground v.1.15,2013-04-19 23:28:00,
2013-04-19 18:38:00,38.2,32.6,29.16,West,269,5.0,8.0,80,0.00,,,0.00,39,Wunderground v.1.15,2013-04-19 23:38:00,
2013-04-19 18:43:00,38.2,32.6,29.16,WSW,248,4.0,8.0,80,0.00,,,0.00,19,Wunderground v.1.15,2013-04-19 23:43:00,
2013-04-19 18:53:00,38.1,32.5,29.17,WSW,241,4.0,6.0,80,0.00,,,0.00,14,Wunderground v.1.15,2013-04-19 23:53:00,
2013-04-19 18:58:00,38.2,32.6,29.17,WSW,254,4.0,4.0,80,0.00,,,0.00,12,Wunderground v.1.15,2013-04-19 23:58:00,
2013-04-19 19:08:00,38.1,32.5,29.17,WSW,247,4.0,8.0,80,0.00,,,0.00,11,Wunderground v.1.15,2013-04-20 00:08:00,
2013-04-19 19:18:00,37.9,32.3,29.18,WSW,255,4.0,4.0,80,0.00,,,0.00,5,Wunderground v.1.15,2013-04-20 00:18:00,
2013-04-19 19:28:00,37.8,32.5,29.18,West,268,4.0,8.0,81,0.00,,,0.00,0,Wunderground v.1.15,2013-04-20 00:28:00,
2013-04-19 19:38:00,37.9,32.6,29.19,WSW,254,4.0,4.0,81,0.00,,,0.00,0,Wunderground v.1.15,2013-04-20 00:38:00,
2013-04-19 19:43:00,37.8,32.5,29.19,WSW,246,3.0,8.0,81,0.00,,,0.00,0,Wunderground v.1.15,2013-04-20 00:43:00,
2013-04-19 19:52:00,37.8,32.5,29.19,West,269,3.0,8.0,81,0.00,,,0.00,0,Wunderground v.1.15,2013-04-20 00:52:00,
2013-04-19 19:58:00,37.9,32.6,29.20,West,259,3.0,3.0,81,0.00,,,0.00,0,Wunderground v.1.15,2013-04-20 00:58:00,
2013-04-19 20:07:00,37.9,32.6,29.20,WSW,246,3.0,8.0,81,0.00,,,0.00,0,Wunderground v.1.15,2013-04-20 01:07:00,
2013-04-19 20:13:00,37.9,32.6,29.21,WSW,254,3.0,8.0,81,0.00,,,0.00,0,Wunderground v.1.15,2013-04-20 01:13:00,
2013-04-19 20:22:00,37.7,32.7,29.21,West,276,2.0,8.0,82,0.00,,,0.00,0,Wunderground v.1.15,2013-04-20 01:22:00,
2013-04-19 20:27:00,37.7,32.7,29.21,WSW,257,2.0,2.0,82,0.00,,,0.00,0,Wunderground v.1.15,2013-04-20 01:27:00,
2013-04-19 20:39:00,37.6,32.6,29.23,WSW,256,2.0,8.0,82,0.00,,,0.00,0,Wunderground v.1.15,2013-04-20 01:39:00,
2013-04-19 20:44:00,36.5,31.8,29.23,WSW,240,2.0,8.0,83,0.00,,,0.00,0,Wunderground v.1.15,2013-04-20 01:44:00,
2013-04-19 20:53:00,34.6,31.1,29.23,WNW,296,2.0,8.0,87,0.00,,,0.00,0,Wunderground v.1.15,2013-04-20 01:53:00,
2013-04-19 20:59:00,34.3,31.4,29.23,West,271,2.0,2.0,89,0.00,,,0.00,0,Wunderground v.1.15,2013-04-20 01:59:00,
2013-04-19 21:09:00,34.3,31.7,29.23,WSW,248,2.0,8.0,90,0.00,,,0.00,0,Wunderground v.1.15,2013-04-20 02:09:00,
2013-04-19 21:18:00,34.6,32.2,29.24,WSW,254,3.0,8.0,91,0.00,,,0.00,0,Wunderground v.1.15,2013-04-20 02:18:00,
2013-04-19 21:28:00,34.9,32.3,29.24,WSW,250,2.0,8.0,90,0.00,,,0.00,0,Wunderground v.1.15,2013-04-20 02:28:00,
2013-04-19 21:33:00,35.1,32.5,29.25,WSW,245,2.0,8.0,90,0.00,,,0.00,0,Wunderground v.1.15,2013-04-20 02:33:00,
2013-04-19 21:43:00,35.3,32.7,29.25,WSW,248,2.0,8.0,90,0.00,,,0.00,0,Wunderground v.1.15,2013-04-20 02:43:00,
2013-04-19 21:48:00,35.4,32.8,29.25,WSW,247,3.0,8.0,90,0.00,,,0.00,0,Wunderground v.1.15,2013-04-20 02:48:00,
2013-04-19 21:58:00,35.6,32.7,29.25,WSW,251,3.0,3.0,89,0.00,,,0.00,0,Wunderground v.1.15,2013-04-20 02:58:00,
2013-04-19 22:03:00,35.6,32.7,29.26,WSW,251,2.0,4.0,89,0.00,,,0.00,0,Wunderground v.1.15,2013-04-20 03:03:00,
2013-04-19 22:13:00,35.7,32.5,29.26,SW,236,3.0,8.0,88,0.00,,,0.00,0,Wunderground v.1.15,2013-04-20 03:13:00,
2013-04-19 22:23:00,35.9,32.1,29.26,WSW,252,2.0,8.0,86,0.00,,,0.00,0,Wunderground v.1.15,2013-04-20 03:23:00,
2013-04-19 22:28:00,35.9,31.8,29.26,WSW,255,2.0,8.0,85,0.00,,,0.00,0,Wunderground v.1.15,2013-04-20 03:28:00,
2013-04-19 22:38:00,35.9,31.2,29.27,WSW,257,2.0,2.0,83,0.00,,,0.00,0,Wunderground v.1.15,2013-04-20 03:38:00,
2013-04-19 22:43:00,35.9,31.2,29.27,SW,221,2.0,3.0,83,0.00,,,0.00,0,Wunderground v.1.15,2013-04-20 03:43:00,
2013-04-19 22:53:00,35.9,30.9,29.27,WSW,243,2.0,8.0,82,0.00,,,0.00,0,Wunderground v.1.15,2013-04-20 03:53:00,
2013-04-19 22:58:00,35.9,30.9,29.27,WSW,252,2.0,8.0,82,0.00,,,0.00,0,Wunderground v.1.15,2013-04-20 03:58:00,
2013-04-19 23:03:00,35.9,30.9,29.27,WSW,255,2.0,8.0,82,0.00,,,0.00,0,Wunderground v.1.15,2013-04-20 04:03:00,
2013-04-19 23:08:00,35.7,30.7,29.27,WSW,254,2.0,2.0,82,0.00,,,0.00,0,Wunderground v.1.15,2013-04-20 04:08:00,
2013-04-19 23:18:00,35.5,30.5,29.27,West,272,2.0,2.0,82,0.00,,,0.00,0,Wunderground v.1.15,2013-04-20 04:18:00,
2013-04-19 23:28:00,35.2,30.3,29.28,WSW,247,2.0,8.0,82,0.00,,,0.00,0,Wunderground v.1.15,2013-04-20 04:28:00,
2013-04-19 23:33:00,35.0,30.1,29.28,West,265,2.0,8.0,82,0.00,,,0.00,0,Wunderground v.1.15,2013-04-20 04:33:00,
2013-04-19 23:38:00,34.9,30.3,29.28,WSW,253,2.0,8.0,83,0.00,,,0.00,0,Wunderground v.1.15,2013-04-20 04:38:00,
2013-04-19 23:48:00,34.7,30.1,29.29,WSW,243,2.0,8.0,83,0.00,,,0.00,0,Wunderground v.1.15,2013-04-20 04:48:00,
2013-04-19 23:58:00,34.6,30.0,29.29,WSW,245,2.0,8.0,83,0.00,,,0.00,0,Wunderground v.1.15,2013-04-20 04:58:00,